sensor_id;sensor_type;location;lat;lon;timestamp;pressure;altitude;pressure_sealevel;temperature;humidity
29215;BME280;16252;49.816;7.964;2022-10-16T00:01:41;99712.56;;;17.93;76.51
29215;BME280;16252;49.816;7.964;2022-10-16T00:04:07;99685.19;;;17.80;75.49
29215;BME280;16252;49.816;7.964;2022-10-16T00:06:32;99729.63;;;18.02;75.68
29215;BME280;16252;49.816;7.964;2022-10-16T00:08:58;99719.84;;;18.01;75.45
29215;BME280;16252;49.816;7.964;2022-10-16T00:11:28;99709.34;;;17.98;75.53
29215;BME280;16252;49.816;7.964;2022-10-16T00:13:57;99721.50;;;18.02;75.30
29215;BME280;16252;49.816;7.964;2022-10-16T00:16:22;99707.31;;;17.92;75.58
29215;BME280;16252;49.816;7.964;2022-10-16T00:18:48;99686.16;;;17.79;75.54
29215;BME280;16252;49.816;7.964;2022-10-16T00:21:19;99710.69;;;17.94;75.66
29215;BME280;16252;49.816;7.964;2022-10-16T00:23:45;99732.19;;;18.04;75.61
29215;BME280;16252;49.816;7.964;2022-10-16T00:26:13;99736.75;;;18.03;75.87
29215;BME280;16252;49.816;7.964;2022-10-16T00:28:40;99727.97;;;17.93;75.89
29215;BME280;16252;49.816;7.964;2022-10-16T00:31:08;99751.63;;;18.07;76.45
29215;BME280;16252;49.816;7.964;2022-10-16T00:33:34;99731.84;;;17.98;76.32
29215;BME280;16252;49.816;7.964;2022-10-16T00:36:01;99716.94;;;17.94;76.12
29215;BME280;16252;49.816;7.964;2022-10-16T00:38:28;99734.34;;;18.00;76.49
29215;BME280;16252;49.816;7.964;2022-10-16T00:40:53;99731.66;;;18.00;76.29
29215;BME280;16252;49.816;7.964;2022-10-16T00:46:16;99731.47;;;18.10;76.32
29215;BME280;16252;49.816;7.964;2022-10-16T00:48:46;99676.03;;;17.73;76.20
29215;BME280;16252;49.816;7.964;2022-10-16T00:51:14;99588.00;;;17.13;76.30
29215;BME280;16252;49.816;7.964;2022-10-16T00:53:40;99587.50;;;17.18;76.04
29215;BME280;16252;49.816;7.964;2022-10-16T00:56:06;99691.09;;;17.75;76.27
29215;BME280;16252;49.816;7.964;2022-10-16T00:58:31;99617.91;;;17.36;75.95
29215;BME280;16252;49.816;7.964;2022-10-16T01:00:57;99684.84;;;17.75;76.46
29215;BME280;16252;49.816;7.964;2022-10-16T01:03:34;99592.06;;;17.25;76.36
29215;BME280;16252;49.816;7.964;2022-10-16T01:09:22;99649.69;;;17.50;76.52
29215;BME280;16252;49.816;7.964;2022-10-16T01:12:01;99747.22;;;18.06;76.57
29215;BME280;16252;49.816;7.964;2022-10-16T01:14:57;99761.94;;;18.12;76.32
29215;BME280;16252;49.816;7.964;2022-10-16T01:17:49;99732.84;;;17.97;76.40
29215;BME280;16252;49.816;7.964;2022-10-16T01:26:03;99718.31;;;17.66;76.73
29215;BME280;16252;49.816;7.964;2022-10-16T01:28:35;99637.50;;;17.14;76.60
29215;BME280;16252;49.816;7.964;2022-10-16T01:31:04;99713.75;;;17.58;76.84
29215;BME280;16252;49.816;7.964;2022-10-16T01:33:35;99629.09;;;17.17;76.92
29215;BME280;16252;49.816;7.964;2022-10-16T01:36:09;99610.66;;;17.12;76.90
29215;BME280;16252;49.816;7.964;2022-10-16T01:38:38;99617.75;;;17.13;77.02
29215;BME280;16252;49.816;7.964;2022-10-16T01:41:29;99619.44;;;17.14;76.93
29215;BME280;16252;49.816;7.964;2022-10-16T01:44:08;99671.81;;;17.54;76.92
29215;BME280;16252;49.816;7.964;2022-10-16T01:46:37;99604.22;;;17.13;76.98
29215;BME280;16252;49.816;7.964;2022-10-16T01:49:05;99703.25;;;17.63;77.23
29215;BME280;16252;49.816;7.964;2022-10-16T01:51:35;99638.72;;;17.27;77.00
29215;BME280;16252;49.816;7.964;2022-10-16T01:54:04;99680.13;;;17.52;77.14
29215;BME280;16252;49.816;7.964;2022-10-16T01:56:32;99624.53;;;17.17;76.81
29215;BME280;16252;49.816;7.964;2022-10-16T01:59:06;99636.69;;;17.29;77.05
29215;BME280;16252;49.816;7.964;2022-10-16T02:01:35;99606.44;;;17.09;77.09
29215;BME280;16252;49.816;7.964;2022-10-16T02:04:13;99769.38;;;18.26;76.17
29215;BME280;16252;49.816;7.964;2022-10-16T02:07:03;99606.75;;;17.06;76.64
29215;BME280;16252;49.816;7.964;2022-10-16T02:09:30;99643.78;;;17.22;76.95
29215;BME280;16252;49.816;7.964;2022-10-16T02:11:59;99636.31;;;17.16;76.85
29215;BME280;16252;49.816;7.964;2022-10-16T02:14:28;99625.19;;;17.19;76.78
29215;BME280;16252;49.816;7.964;2022-10-16T02:16:56;99722.38;;;17.78;76.83
29215;BME280;16252;49.816;7.964;2022-10-16T02:19:55;99608.28;;;17.09;76.83
29215;BME280;16252;49.816;7.964;2022-10-16T02:22:26;99654.25;;;17.33;76.82
29215;BME280;16252;49.816;7.964;2022-10-16T02:25:00;99783.09;;;18.16;76.73
29215;BME280;16252;49.816;7.964;2022-10-16T02:30:16;99635.16;;;17.19;76.49
29215;BME280;16252;49.816;7.964;2022-10-16T02:32:46;99636.00;;;17.19;76.68
29215;BME280;16252;49.816;7.964;2022-10-16T02:35:13;99665.91;;;17.26;76.96
29215;BME280;16252;49.816;7.964;2022-10-16T02:37:40;99745.56;;;17.81;76.88
29215;BME280;16252;49.816;7.964;2022-10-16T02:40:07;99662.19;;;17.35;76.84
29215;BME280;16252;49.816;7.964;2022-10-16T02:42:35;99642.59;;;17.25;76.52
29215;BME280;16252;49.816;7.964;2022-10-16T02:45:00;99652.22;;;17.27;76.64
29215;BME280;16252;49.816;7.964;2022-10-16T02:47:26;99631.94;;;17.23;76.57
29215;BME280;16252;49.816;7.964;2022-10-16T02:49:51;99746.06;;;17.84;76.54
29215;BME280;16252;49.816;7.964;2022-10-16T02:52:17;99711.72;;;17.60;76.70
29215;BME280;16252;49.816;7.964;2022-10-16T02:54:42;99658.31;;;17.38;76.61
29215;BME280;16252;49.816;7.964;2022-10-16T02:57:07;99729.66;;;17.77;76.58
29215;BME280;16252;49.816;7.964;2022-10-16T02:59:33;99645.44;;;17.31;76.35
29215;BME280;16252;49.816;7.964;2022-10-16T03:01:58;99723.72;;;17.74;76.67
29215;BME280;16252;49.816;7.964;2022-10-16T03:04:23;99640.56;;;17.27;76.48
29215;BME280;16252;49.816;7.964;2022-10-16T03:06:49;99655.28;;;17.32;76.66
29215;BME280;16252;49.816;7.964;2022-10-16T03:09:14;99644.47;;;17.24;76.47
29215;BME280;16252;49.816;7.964;2022-10-16T03:11:40;99664.03;;;17.26;76.50
29215;BME280;16252;49.816;7.964;2022-10-16T03:14:05;99657.63;;;17.27;76.43
29215;BME280;16252;49.816;7.964;2022-10-16T03:16:30;99640.53;;;17.19;76.48
29215;BME280;16252;49.816;7.964;2022-10-16T03:18:56;99765.00;;;17.92;76.78
29215;BME280;16252;49.816;7.964;2022-10-16T03:21:21;99639.72;;;17.26;76.61
29215;BME280;16252;49.816;7.964;2022-10-16T03:23:46;99687.88;;;17.55;76.59
29215;BME280;16252;49.816;7.964;2022-10-16T03:26:12;99744.03;;;17.94;76.74
29215;BME280;16252;49.816;7.964;2022-10-16T03:28:37;99735.75;;;17.96;76.41
29215;BME280;16252;49.816;7.964;2022-10-16T03:31:03;99657.81;;;17.42;76.55
29215;BME280;16252;49.816;7.964;2022-10-16T03:33:28;99670.81;;;17.39;76.28
29215;BME280;16252;49.816;7.964;2022-10-16T03:35:54;99710.72;;;17.45;76.20
29215;BME280;16252;49.816;7.964;2022-10-16T03:38:20;99672.50;;;17.31;76.32
29215;BME280;16252;49.816;7.964;2022-10-16T03:40:46;99768.53;;;17.85;76.36
29215;BME280;16252;49.816;7.964;2022-10-16T03:43:11;99729.28;;;17.64;76.61
29215;BME280;16252;49.816;7.964;2022-10-16T03:45:38;99773.31;;;17.91;76.56
29215;BME280;16252;49.816;7.964;2022-10-16T03:48:03;99674.53;;;17.29;76.50
29215;BME280;16252;49.816;7.964;2022-10-16T03:50:29;99683.31;;;17.31;76.43
29215;BME280;16252;49.816;7.964;2022-10-16T03:52:55;99748.22;;;17.64;76.10
29215;BME280;16252;49.816;7.964;2022-10-16T03:55:20;99742.13;;;17.62;76.22
29215;BME280;16252;49.816;7.964;2022-10-16T03:57:45;99768.22;;;17.80;76.32
29215;BME280;16252;49.816;7.964;2022-10-16T04:00:11;99680.78;;;17.30;76.16
29215;BME280;16252;49.816;7.964;2022-10-16T04:02:37;99781.75;;;17.80;76.35
29215;BME280;16252;49.816;7.964;2022-10-16T04:05:02;99676.22;;;17.22;76.41
29215;BME280;16252;49.816;7.964;2022-10-16T04:07:28;99742.13;;;17.62;76.02
29215;BME280;16252;49.816;7.964;2022-10-16T04:09:56;99744.38;;;17.75;76.04
29215;BME280;16252;49.816;7.964;2022-10-16T04:12:25;99664.53;;;17.14;76.20
29215;BME280;16252;49.816;7.964;2022-10-16T04:14:50;99747.22;;;17.65;76.33
29215;BME280;16252;49.816;7.964;2022-10-16T04:17:16;99676.88;;;17.16;76.31
29215;BME280;16252;49.816;7.964;2022-10-16T04:19:41;99776.50;;;17.70;76.28
29215;BME280;16252;49.816;7.964;2022-10-16T04:22:07;99682.63;;;17.13;76.45
29215;BME280;16252;49.816;7.964;2022-10-16T04:24:32;99694.13;;;17.15;76.41
29215;BME280;16252;49.816;7.964;2022-10-16T04:26:57;99667.09;;;17.07;76.24
29215;BME280;16252;49.816;7.964;2022-10-16T04:29:23;99754.31;;;17.50;76.42
29215;BME280;16252;49.816;7.964;2022-10-16T04:31:48;99775.78;;;17.60;76.43
29215;BME280;16252;49.816;7.964;2022-10-16T04:34:14;99746.72;;;17.45;76.42
29215;BME280;16252;49.816;7.964;2022-10-16T04:36:39;99784.59;;;17.62;76.07
29215;BME280;16252;49.816;7.964;2022-10-16T04:39:04;99754.28;;;17.42;76.50
29215;BME280;16252;49.816;7.964;2022-10-16T04:41:30;99746.03;;;17.35;76.35
29215;BME280;16252;49.816;7.964;2022-10-16T04:43:55;99708.28;;;17.09;76.45
29215;BME280;16252;49.816;7.964;2022-10-16T04:46:20;99782.56;;;17.55;76.21
29215;BME280;16252;49.816;7.964;2022-10-16T04:48:46;99759.53;;;17.35;76.35
29215;BME280;16252;49.816;7.964;2022-10-16T04:51:12;99752.41;;;17.26;76.16
29215;BME280;16252;49.816;7.964;2022-10-16T04:53:37;99770.38;;;17.35;76.11
29215;BME280;16252;49.816;7.964;2022-10-16T04:56:02;99698.28;;;16.85;76.07
29215;BME280;16252;49.816;7.964;2022-10-16T04:58:28;99695.91;;;16.82;76.04
29215;BME280;16252;49.816;7.964;2022-10-16T05:00:53;99831.25;;;17.64;76.06
29215;BME280;16252;49.816;7.964;2022-10-16T05:03:19;99686.88;;;16.73;76.41
29215;BME280;16252;49.816;7.964;2022-10-16T05:05:45;99760.31;;;17.03;76.28
29215;BME280;16252;49.816;7.964;2022-10-16T05:08:14;99707.66;;;16.73;76.74
29215;BME280;16252;49.816;7.964;2022-10-16T05:10:44;99786.25;;;17.30;76.69
29215;BME280;16252;49.816;7.964;2022-10-16T05:13:10;99716.50;;;16.83;76.50
29215;BME280;16252;49.816;7.964;2022-10-16T05:15:36;99668.78;;;16.57;76.69
29215;BME280;16252;49.816;7.964;2022-10-16T05:18:02;99774.03;;;17.18;76.80
29215;BME280;16252;49.816;7.964;2022-10-16T05:20:28;99691.78;;;16.61;77.01
29215;BME280;16252;49.816;7.964;2022-10-16T05:22:53;99768.56;;;17.01;77.21
29215;BME280;16252;49.816;7.964;2022-10-16T05:25:20;99691.91;;;16.52;76.72
29215;BME280;16252;49.816;7.964;2022-10-16T05:27:49;99801.75;;;17.20;76.95
29215;BME280;16252;49.816;7.964;2022-10-16T05:30:15;99808.34;;;17.17;76.80
29215;BME280;16252;49.816;7.964;2022-10-16T05:32:41;99711.66;;;16.60;76.68
29215;BME280;16252;49.816;7.964;2022-10-16T05:35:07;99795.81;;;17.08;76.80
29215;BME280;16252;49.816;7.964;2022-10-16T05:37:32;99718.56;;;16.55;76.64
29215;BME280;16252;49.816;7.964;2022-10-16T05:39:58;99742.22;;;16.61;76.77
29215;BME280;16252;49.816;7.964;2022-10-16T05:42:23;99749.34;;;16.70;76.88
29215;BME280;16252;49.816;7.964;2022-10-16T05:44:49;99735.66;;;16.63;76.91
29215;BME280;16252;49.816;7.964;2022-10-16T05:47:14;99750.16;;;16.62;77.09
29215;BME280;16252;49.816;7.964;2022-10-16T05:49:40;99882.81;;;17.54;76.99
29215;BME280;16252;49.816;7.964;2022-10-16T05:52:06;99857.41;;;17.39;76.84
29215;BME280;16252;49.816;7.964;2022-10-16T05:54:31;99870.78;;;17.48;76.78
29215;BME280;16252;49.816;7.964;2022-10-16T05:56:56;99876.88;;;17.50;76.57
29215;BME280;16252;49.816;7.964;2022-10-16T05:59:21;99890.91;;;17.54;76.61
29215;BME280;16252;49.816;7.964;2022-10-16T06:01:47;99870.78;;;17.48;76.86
29215;BME280;16252;49.816;7.964;2022-10-16T06:04:15;99733.28;;;16.60;76.68
29215;BME280;16252;49.816;7.964;2022-10-16T06:06:52;99736.88;;;16.69;76.26
29215;BME280;16252;49.816;7.964;2022-10-16T06:09:18;99847.88;;;17.26;76.35
29215;BME280;16252;49.816;7.964;2022-10-16T06:11:57;99740.88;;;16.57;76.66
29215;BME280;16252;49.816;7.964;2022-10-16T06:14:26;99720.41;;;16.46;76.58
29215;BME280;16252;49.816;7.964;2022-10-16T06:17:00;99741.59;;;16.67;76.23
29215;BME280;16252;49.816;7.964;2022-10-16T06:19:28;99749.66;;;16.59;76.80
29215;BME280;16252;49.816;7.964;2022-10-16T06:21:56;99804.22;;;16.97;77.21
29215;BME280;16252;49.816;7.964;2022-10-16T06:24:27;99793.41;;;16.97;77.30
29215;BME280;16252;49.816;7.964;2022-10-16T06:26:55;99746.84;;;16.68;77.07
29215;BME280;16252;49.816;7.964;2022-10-16T06:29:32;99739.38;;;16.62;77.00
29215;BME280;16252;49.816;7.964;2022-10-16T06:32:03;99905.28;;;17.54;76.75
29215;BME280;16252;49.816;7.964;2022-10-16T06:34:31;99849.88;;;17.16;76.78
29215;BME280;16252;49.816;7.964;2022-10-16T06:37:00;99747.47;;;16.62;76.67
29215;BME280;16252;49.816;7.964;2022-10-16T06:39:31;99743.75;;;16.63;76.49
29215;BME280;16252;49.816;7.964;2022-10-16T06:42:10;99750.66;;;16.58;76.80
29215;BME280;16252;49.816;7.964;2022-10-16T06:44:41;99924.09;;;17.64;76.96
29215;BME280;16252;49.816;7.964;2022-10-16T06:47:07;99753.91;;;16.69;77.04
29215;BME280;16252;49.816;7.964;2022-10-16T06:49:33;99772.13;;;16.67;77.20
29215;BME280;16252;49.816;7.964;2022-10-16T06:51:58;99926.97;;;17.63;77.60
29215;BME280;16252;49.816;7.964;2022-10-16T06:54:24;99832.25;;;17.04;77.54
29215;BME280;16252;49.816;7.964;2022-10-16T06:56:51;99789.47;;;16.83;77.40
29215;BME280;16252;49.816;7.964;2022-10-16T06:59:16;99775.38;;;16.71;77.22
29215;BME280;16252;49.816;7.964;2022-10-16T07:01:43;99797.09;;;16.87;77.45
29215;BME280;16252;49.816;7.964;2022-10-16T07:04:11;99827.72;;;17.04;77.66
29215;BME280;16252;49.816;7.964;2022-10-16T07:06:42;99777.91;;;16.73;77.36
29215;BME280;16252;49.816;7.964;2022-10-16T07:09:10;99770.13;;;16.69;77.56
29215;BME280;16252;49.816;7.964;2022-10-16T07:11:39;99938.69;;;17.80;77.65
29215;BME280;16252;49.816;7.964;2022-10-16T07:14:14;99792.00;;;16.84;77.54
29215;BME280;16252;49.816;7.964;2022-10-16T07:16:40;99816.72;;;16.98;77.74
29215;BME280;16252;49.816;7.964;2022-10-16T07:19:06;99960.03;;;17.83;77.68
29215;BME280;16252;49.816;7.964;2022-10-16T07:21:33;99825.50;;;17.00;77.56
29215;BME280;16252;49.816;7.964;2022-10-16T07:24:07;99817.03;;;16.95;77.51
29215;BME280;16252;49.816;7.964;2022-10-16T07:26:35;99827.03;;;17.02;77.59
29215;BME280;16252;49.816;7.964;2022-10-16T07:29:15;99823.84;;;17.07;77.65
29215;BME280;16252;49.816;7.964;2022-10-16T07:31:49;99818.09;;;17.02;77.73
29215;BME280;16252;49.816;7.964;2022-10-16T07:34:27;99811.97;;;16.92;77.37
29215;BME280;16252;49.816;7.964;2022-10-16T07:36:57;99808.81;;;17.04;77.51
29215;BME280;16252;49.816;7.964;2022-10-16T07:39:38;99815.69;;;16.99;77.42
29215;BME280;16252;49.816;7.964;2022-10-16T07:42:04;99983.06;;;17.95;77.63
29215;BME280;16252;49.816;7.964;2022-10-16T07:44:33;99990.34;;;17.94;77.74
29215;BME280;16252;49.816;7.964;2022-10-16T07:46:58;99991.03;;;17.96;77.63
29215;BME280;16252;49.816;7.964;2022-10-16T07:49:24;100014.22;;;17.99;77.67
29215;BME280;16252;49.816;7.964;2022-10-16T07:51:53;99863.16;;;17.01;77.84
29215;BME280;16252;49.816;7.964;2022-10-16T07:54:24;99950.25;;;17.47;77.83
29215;BME280;16252;49.816;7.964;2022-10-16T07:56:52;99873.69;;;17.04;77.70
29215;BME280;16252;49.816;7.964;2022-10-16T07:59:18;99888.22;;;17.11;77.51
29215;BME280;16252;49.816;7.964;2022-10-16T08:01:46;100028.09;;;18.04;77.73
29215;BME280;16252;49.816;7.964;2022-10-16T08:04:15;99855.72;;;16.95;77.85
29215;BME280;16252;49.816;7.964;2022-10-16T08:06:41;99894.31;;;17.14;77.67
29215;BME280;16252;49.816;7.964;2022-10-16T08:09:09;99870.47;;;17.09;77.73
29215;BME280;16252;49.816;7.964;2022-10-16T08:11:35;99940.41;;;17.38;77.93
29215;BME280;16252;49.816;7.964;2022-10-16T08:14:01;99895.16;;;17.14;77.84
29215;BME280;16252;49.816;7.964;2022-10-16T08:16:29;99891.09;;;17.10;78.06
29215;BME280;16252;49.816;7.964;2022-10-16T08:18:55;99911.09;;;17.25;78.10
29215;BME280;16252;49.816;7.964;2022-10-16T08:21:24;99902.84;;;17.27;77.96
29215;BME280;16252;49.816;7.964;2022-10-16T08:23:50;99956.72;;;17.63;78.01
29215;BME280;16252;49.816;7.964;2022-10-16T08:26:16;99912.50;;;17.29;78.11
29215;BME280;16252;49.816;7.964;2022-10-16T08:28:49;100019.78;;;17.97;78.24
29215;BME280;16252;49.816;7.964;2022-10-16T08:31:18;100020.31;;;18.01;78.13
29215;BME280;16252;49.816;7.964;2022-10-16T08:33:44;99897.22;;;17.20;78.22
29215;BME280;16252;49.816;7.964;2022-10-16T08:36:16;99917.19;;;17.27;78.38
29215;BME280;16252;49.816;7.964;2022-10-16T08:38:42;100052.66;;;18.11;78.77
29215;BME280;16252;49.816;7.964;2022-10-16T08:44:49;100076.59;;;18.48;78.65
29215;BME280;16252;49.816;7.964;2022-10-16T08:47:24;100033.38;;;18.22;79.00
29215;BME280;16252;49.816;7.964;2022-10-16T08:50:11;99944.59;;;17.75;79.30
29215;BME280;16252;49.816;7.964;2022-10-16T08:52:43;100006.16;;;18.15;79.45
29215;BME280;16252;49.816;7.964;2022-10-16T08:57:46;100017.69;;;18.42;79.17
29215;BME280;16252;49.816;7.964;2022-10-16T09:00:13;100098.38;;;18.97;78.93
29215;BME280;16252;49.816;7.964;2022-10-16T09:11:02;100031.75;;;18.70;77.56
29215;BME280;16252;49.816;7.964;2022-10-16T09:16:24;100124.00;;;19.19;77.65
29215;BME280;16252;49.816;7.964;2022-10-16T09:21:46;100094.81;;;18.89;77.19
29215;BME280;16252;49.816;7.964;2022-10-16T09:24:18;100138.91;;;19.15;77.14
29215;BME280;16252;49.816;7.964;2022-10-16T09:26:46;100094.81;;;18.89;77.44
29215;BME280;16252;49.816;7.964;2022-10-16T09:31:40;100120.22;;;19.04;77.84
29215;BME280;16252;49.816;7.964;2022-10-16T09:34:08;100122.97;;;19.12;77.77
29215;BME280;16252;49.816;7.964;2022-10-16T09:36:43;100132.97;;;19.20;78.04
29215;BME280;16252;49.816;7.964;2022-10-16T09:39:10;100106.84;;;19.02;77.88
29215;BME280;16252;49.816;7.964;2022-10-16T09:41:42;100125.81;;;19.19;77.78
29215;BME280;16252;49.816;7.964;2022-10-16T09:44:19;100138.38;;;19.28;77.18
29215;BME280;16252;49.816;7.964;2022-10-16T09:46:47;100131.94;;;19.21;77.69
29215;BME280;16252;49.816;7.964;2022-10-16T09:49:26;100139.75;;;19.32;77.36
29215;BME280;16252;49.816;7.964;2022-10-16T09:52:09;100149.06;;;19.38;77.45
29215;BME280;16252;49.816;7.964;2022-10-16T09:54:36;100124.47;;;19.23;77.58
29215;BME280;16252;49.816;7.964;2022-10-16T09:57:06;100146.34;;;19.46;77.65
29215;BME280;16252;49.816;7.964;2022-10-16T09:59:32;100149.75;;;19.40;77.46
29215;BME280;16252;49.816;7.964;2022-10-16T10:02:01;100159.03;;;19.54;77.65
29215;BME280;16252;49.816;7.964;2022-10-16T10:04:38;100162.44;;;19.64;77.97
29215;BME280;16252;49.816;7.964;2022-10-16T10:07:04;100151.09;;;19.60;78.25
29215;BME280;16252;49.816;7.964;2022-10-16T10:09:38;100157.88;;;19.73;78.38
29215;BME280;16252;49.816;7.964;2022-10-16T10:12:05;100128.19;;;19.71;78.33
29215;BME280;16252;49.816;7.964;2022-10-16T10:14:45;100142.19;;;19.99;77.81
29215;BME280;16252;49.816;7.964;2022-10-16T10:17:14;100138.59;;;20.07;77.47
29215;BME280;16252;49.816;7.964;2022-10-16T10:19:47;100152.25;;;20.30;77.83
29215;BME280;16252;49.816;7.964;2022-10-16T10:24:57;100110.13;;;20.34;76.88
29215;BME280;16252;49.816;7.964;2022-10-16T10:27:30;100137.53;;;20.64;76.85
29215;BME280;16252;49.816;7.964;2022-10-16T10:30:05;100147.25;;;20.81;76.68
29215;BME280;16252;49.816;7.964;2022-10-16T10:32:56;100118.91;;;20.75;75.83
29215;BME280;16252;49.816;7.964;2022-10-16T10:38:29;100134.69;;;21.03;75.24
29215;BME280;16252;49.816;7.964;2022-10-16T10:41:02;100149.56;;;21.15;75.82
29215;BME280;16252;49.816;7.964;2022-10-16T10:43:45;100136.91;;;21.23;76.39
29215;BME280;16252;49.816;7.964;2022-10-16T10:46:51;100140.00;;;21.42;75.66
29215;BME280;16252;49.816;7.964;2022-10-16T10:49:19;100154.00;;;21.54;74.47
29215;BME280;16252;49.816;7.964;2022-10-16T10:52:05;100147.06;;;21.67;74.51
29215;BME280;16252;49.816;7.964;2022-10-16T10:54:51;100141.34;;;21.61;73.85
29215;BME280;16252;49.816;7.964;2022-10-16T10:57:27;100147.56;;;21.70;74.51
29215;BME280;16252;49.816;7.964;2022-10-16T11:00:28;100159.38;;;21.77;74.39
29215;BME280;16252;49.816;7.964;2022-10-16T11:05:50;100144.84;;;21.70;74.23
29215;BME280;16252;49.816;7.964;2022-10-16T11:08:32;100142.47;;;21.67;74.02
29215;BME280;16252;49.816;7.964;2022-10-16T11:12:04;100153.47;;;21.74;74.19
29215;BME280;16252;49.816;7.964;2022-10-16T11:14:04;100162.09;;;21.77;74.00
29215;BME280;16252;49.816;7.964;2022-10-16T11:16:48;100122.28;;;21.61;73.63
29215;BME280;16252;49.816;7.964;2022-10-16T11:19:26;100144.09;;;21.76;74.18
29215;BME280;16252;49.816;7.964;2022-10-16T11:27:23;100129.06;;;21.80;73.52
29215;BME280;16252;49.816;7.964;2022-10-16T11:29:57;100111.59;;;21.75;74.03
29215;BME280;16252;49.816;7.964;2022-10-16T11:32:34;100123.63;;;21.80;74.19
29215;BME280;16252;49.816;7.964;2022-10-16T11:35:19;100133.03;;;21.93;74.16
29215;BME280;16252;49.816;7.964;2022-10-16T11:37:49;100124.00;;;21.92;73.57
29215;BME280;16252;49.816;7.964;2022-10-16T11:40:37;100127.56;;;22.07;73.95
29215;BME280;16252;49.816;7.964;2022-10-16T11:43:25;100121.81;;;22.02;73.60
29215;BME280;16252;49.816;7.964;2022-10-16T11:45:57;100111.31;;;21.99;73.16
29215;BME280;16252;49.816;7.964;2022-10-16T11:48:38;100129.44;;;22.07;73.36
29215;BME280;16252;49.816;7.964;2022-10-16T11:51:31;100143.75;;;22.24;73.26
29215;BME280;16252;49.816;7.964;2022-10-16T11:56:27;100112.16;;;22.00;73.35
29215;BME280;16252;49.816;7.964;2022-10-16T11:59:01;100143.09;;;22.22;72.32
29215;BME280;16252;49.816;7.964;2022-10-16T12:01:47;100113.09;;;22.07;72.75
29215;BME280;16252;49.816;7.964;2022-10-16T12:04:39;100137.72;;;22.28;72.26
29215;BME280;16252;49.816;7.964;2022-10-16T12:07:14;100139.97;;;22.25;72.49
29215;BME280;16252;49.816;7.964;2022-10-16T12:09:41;100108.69;;;22.06;72.59
29215;BME280;16252;49.816;7.964;2022-10-16T12:12:28;100122.97;;;22.23;72.60
29215;BME280;16252;49.816;7.964;2022-10-16T12:15:23;100134.31;;;22.41;72.82
29215;BME280;16252;49.816;7.964;2022-10-16T12:17:50;100111.22;;;22.22;73.07
29215;BME280;16252;49.816;7.964;2022-10-16T12:22:53;100127.25;;;22.47;72.29
29215;BME280;16252;49.816;7.964;2022-10-16T12:25:43;100130.06;;;22.54;71.99
29215;BME280;16252;49.816;7.964;2022-10-16T12:28:21;100129.16;;;22.46;71.29
29215;BME280;16252;49.816;7.964;2022-10-16T12:30:58;100111.09;;;22.31;71.73
29215;BME280;16252;49.816;7.964;2022-10-16T12:33:29;100123.59;;;22.40;71.14
29215;BME280;16252;49.816;7.964;2022-10-16T12:35:57;100103.88;;;22.23;70.92
29215;BME280;16252;49.816;7.964;2022-10-16T12:38:28;100104.16;;;22.28;70.87
29215;BME280;16252;49.816;7.964;2022-10-16T12:41:00;100125.50;;;22.39;70.94
29215;BME280;16252;49.816;7.964;2022-10-16T12:43:35;100096.19;;;22.26;71.02
29215;BME280;16252;49.816;7.964;2022-10-16T12:46:23;100111.03;;;22.39;71.25
29215;BME280;16252;49.816;7.964;2022-10-16T12:48:49;100090.34;;;22.15;71.02
29215;BME280;16252;49.816;7.964;2022-10-16T12:54:10;100122.38;;;22.42;71.36
29215;BME280;16252;49.816;7.964;2022-10-16T13:10:25;100141.56;;;22.49;70.20
29215;BME280;16252;49.816;7.964;2022-10-16T13:23:38;100143.53;;;22.40;71.18
29215;BME280;16252;49.816;7.964;2022-10-16T13:26:20;100130.94;;;22.39;70.97
29215;BME280;16252;49.816;7.964;2022-10-16T13:28:48;100057.13;;;21.90;71.48
29215;BME280;16252;49.816;7.964;2022-10-16T13:31:18;100141.84;;;22.39;71.09
29215;BME280;16252;49.816;7.964;2022-10-16T13:33:50;100148.13;;;22.40;71.61
29215;BME280;16252;49.816;7.964;2022-10-16T13:36:47;100126.31;;;22.40;71.33
29215;BME280;16252;49.816;7.964;2022-10-16T13:39:21;100131.34;;;22.36;71.63
29215;BME280;16252;49.816;7.964;2022-10-16T13:44:26;100115.00;;;22.21;71.93
29215;BME280;16252;49.816;7.964;2022-10-16T13:46:59;100106.81;;;22.21;71.78
29215;BME280;16252;49.816;7.964;2022-10-16T13:49:25;100135.00;;;22.28;71.93
29215;BME280;16252;49.816;7.964;2022-10-16T13:51:55;100096.28;;;22.18;71.35
29215;BME280;16252;49.816;7.964;2022-10-16T13:54:21;100123.06;;;22.29;71.61
29215;BME280;16252;49.816;7.964;2022-10-16T13:56:46;100120.34;;;22.29;71.83
29215;BME280;16252;49.816;7.964;2022-10-16T14:01:49;100119.28;;;22.31;71.99
29215;BME280;16252;49.816;7.964;2022-10-16T14:04:16;100129.84;;;22.34;71.95
29215;BME280;16252;49.816;7.964;2022-10-16T14:06:44;100120.78;;;22.33;71.97
29215;BME280;16252;49.816;7.964;2022-10-16T14:09:36;100120.69;;;22.41;71.94
29215;BME280;16252;49.816;7.964;2022-10-16T14:12:08;100126.50;;;22.38;71.92
29215;BME280;16252;49.816;7.964;2022-10-16T14:14:55;100131.94;;;22.53;71.81
29215;BME280;16252;49.816;7.964;2022-10-16T14:17:23;100136.09;;;22.49;71.95
29215;BME280;16252;49.816;7.964;2022-10-16T14:19:51;100094.22;;;22.20;71.68
29215;BME280;16252;49.816;7.964;2022-10-16T14:22:32;100149.59;;;22.57;71.24
29215;BME280;16252;49.816;7.964;2022-10-16T14:24:57;100122.59;;;22.41;71.32
29215;BME280;16252;49.816;7.964;2022-10-16T14:30:22;100114.75;;;22.38;71.21
29215;BME280;16252;49.816;7.964;2022-10-16T14:35:28;100135.00;;;22.43;71.27
29215;BME280;16252;49.816;7.964;2022-10-16T14:37:56;100148.88;;;22.48;71.47
29215;BME280;16252;49.816;7.964;2022-10-16T14:40:28;100145.13;;;22.49;71.23
29215;BME280;16252;49.816;7.964;2022-10-16T14:42:54;100131.34;;;22.36;71.30
29215;BME280;16252;49.816;7.964;2022-10-16T14:45:27;100127.72;;;22.36;71.43
29215;BME280;16252;49.816;7.964;2022-10-16T14:48:05;100124.47;;;22.25;71.00
29215;BME280;16252;49.816;7.964;2022-10-16T14:50:39;100142.97;;;22.30;71.16